Mexia, TX

12:36 PM CDT on August 30, 2015 (GMT -0500)
Amateur Radio Station KC5PID | | Change Station
CLOSE
Current Station
Personal Weather Station
Location: Mexia, TX
Elevation: 507 ft
Nearby Weather Stations

Elev 507 ft 31.67 °N, 96.47 °W | Updated 19 seconds ago

Partly Cloudy
Partly Cloudy
90.1 °F
Feels Like 95 °F
N
0.0
Wind Variable Wind from SW
Gusts 0.0 mph

Today
High -- | Low -- °F
--% Chance of Precip.
Yesterday
High -- | Low -- °F
Precip. -- in
7:00 AM 7:52 PM
Full, 99% visible
Pressure 30.03 in
Visibility 10.0 miles
Clouds Clear
Heat Index 95 °F
Dew Point 70 °F
Humidity 51%
Rainfall 0.00 in
Snow Depth Not available.
UV 4.3 out of 12
Pollen 8.00 out of 12
Air Quality Not available.
Flu Activity Not available.
METAR KLXY 301715Z AUTO 18006G16KT 140V250 10SM CLR 31/19 A3003 RMK AO2 T03100190
Pressure 30.03 in
Visibility 10.0 miles
Clouds Clear
Heat Index 95 °F
Dew Point 70 °F
Humidity 51%
Rainfall 0.00 in
Snow Depth Not available.
UV 4.3 out of 12
Pollen 8.00 out of 12
Air Quality Not available.
Flu Activity Not available.
METAR KLXY 301715Z AUTO 18006G16KT 140V250 10SM CLR 31/19 A3003 RMK AO2 T03100190
Nowcast | as of 10:36 am CDT on August 30, 2015

Light rain showers will continue to across portions of central Texas into the afternoon hours. Rainfall amounts will be light... generally under 1/10 of an inch. Later this afternoon...showers and thunderstorms may develop. The activity will primarily impact areas south of the I-20 corridor. Those engaged in outdoor activities should keep abreast of the weather. Move indoors immediately if lightning is seen or thunder is heard.

×

10-Day Weather Forecast

×

Almanac

Astronomy

Aug. 30, 2015 Rise Set
Actual Time
Civil Twilight
Nautical Twilight
Astronomical Twilight
Moon
Length of Visible Light
Length of Day
Tomorrow will be .
, % of the Moon is Illuminated

Today's Extremes

State Highs State Lows

Community

WunderPhotos

Upload Photos

1,851,014 photos uploaded!

WunderBlogs® & News

Nearby

Air Quality

  Air Quality AQ Index Pollutant
Not available.

Snow Depth

Station Depth Elevation

Earthquake Activity

City Distance Mag. Time & Date
Minimum magnitude displayed is 2.5.

Coastal Water Temperatures

Place Temperature

Stations

Nearby Weather Stations

Station Location Temp. Windchill Dew Point Humidity Wind Precip. Elev Updated Type